Time;durP1;ratioP1;P1;durP2;ratioP2;P2;SDS_P1;SDS_P2;PMS_P1;PMS_P2;Temp;Humidity;BMP_temperature;BMP_pressure;BME280_temperature;BME280_humidity;BME280_pressure;Samples;Min_cycle;Max_cycle;Signal;HPM_P1;HPM_P2
2021/01/26 00:00:16;;;;;;;5.38;4.88;;;1.50;77.60;;;;;;4994656;28;20030;-62
2021/01/26 00:02:42;;;;;;;5.80;4.85;;;1.50;77.60;;;;;;4995694;28;20057;-61
2021/01/26 00:05:08;;;;;;;6.53;4.95;;;1.50;77.60;;;;;;4997322;28;20454;-62
2021/01/26 00:07:34;;;;;;;6.13;4.68;;;1.50;77.60;;;;;;4997222;28;20034;-62
2021/01/26 00:10:00;;;;;;;7.13;5.18;;;1.60;77.60;;;;;;4998390;28;20117;-62
2021/01/26 00:12:26;;;;;;;8.77;4.72;;;1.60;77.60;;;;;;4995234;28;20041;-59
2021/01/26 00:14:52;;;;;;;7.22;4.68;;;1.60;77.70;;;;;;4997341;28;20041;-61
2021/01/26 00:17:18;;;;;;;6.18;4.90;;;1.60;77.60;;;;;;4996285;28;20026;-62
2021/01/26 00:19:43;;;;;;;6.50;4.90;;;1.60;77.60;;;;;;4996891;28;20034;-60
2021/01/26 00:22:09;;;;;;;5.57;4.78;;;1.60;77.80;;;;;;4996336;28;20109;-62
2021/01/26 00:24:35;;;;;;;6.90;5.07;;;1.60;77.80;;;;;;4998281;28;20652;-60
2021/01/26 00:27:01;;;;;;;9.13;5.15;;;1.60;77.80;;;;;;4998663;28;20826;-61
2021/01/26 00:29:26;;;;;;;7.07;4.85;;;1.60;77.80;;;;;;4993503;28;20514;-62
2021/01/26 00:31:52;;;;;;;6.88;4.88;;;1.60;77.80;;;;;;4997177;28;20088;-62
2021/01/26 00:34:17;;;;;;;5.97;4.85;;;1.60;77.80;;;;;;4997743;28;20037;-62
2021/01/26 00:36:43;;;;;;;5.72;4.72;;;1.60;77.90;;;;;;4995635;28;20054;-62
2021/01/26 00:39:08;;;;;;;6.20;4.70;;;1.60;77.90;;;;;;4997935;28;20061;-62
2021/01/26 00:41:34;;;;;;;5.90;4.82;;;1.60;78.80;;;;;;4997298;28;20034;-62
2021/01/26 00:44:00;;;;;;;6.65;4.93;;;1.60;78.00;;;;;;4996468;28;20117;-62
2021/01/26 00:46:25;;;;;;;6.63;5.10;;;1.60;78.00;;;;;;4980281;28;20519;-62
2021/01/26 00:48:51;;;;;;;7.72;5.22;;;1.70;78.10;;;;;;4994371;28;20038;-62
2021/01/26 00:51:17;;;;;;;6.35;4.88;;;1.70;78.10;;;;;;4996057;28;20029;-62
2021/01/26 00:53:42;;;;;;;4.97;4.47;;;1.70;78.10;;;;;;4994884;28;20045;-62
2021/01/26 00:56:08;;;;;;;6.78;4.80;;;1.70;78.00;;;;;;4997118;28;20037;-62
2021/01/26 00:58:33;;;;;;;6.07;4.65;;;1.70;78.00;;;;;;4995078;28;20394;-61
2021/01/26 01:00:59;;;;;;;5.18;4.65;;;1.70;78.80;;;;;;4994530;28;20041;-62
2021/01/26 01:03:25;;;;;;;6.85;5.10;;;1.70;78.00;;;;;;4997534;28;20503;-63
2021/01/26 01:05:50;;;;;;;6.35;5.38;;;1.70;78.00;;;;;;4997048;28;20117;-63
2021/01/26 01:08:16;;;;;;;6.15;5.20;;;1.70;78.00;;;;;;4994523;28;20065;-62
2021/01/26 01:10:42;;;;;;;6.85;5.55;;;1.70;77.90;;;;;;4976726;28;20525;-62
2021/01/26 01:13:09;;;;;;;6.88;5.03;;;1.70;77.80;;;;;;4979176;28;20042;-62
2021/01/26 01:15:36;;;;;;;6.15;5.40;;;1.70;77.60;;;;;;4996417;28;20556;-62
2021/01/26 01:18:02;;;;;;;6.40;5.05;;;1.70;77.50;;;;;;4994910;28;20038;-62
2021/01/26 01:20:29;;;;;;;6.55;5.15;;;1.70;77.30;;;;;;4995120;28;20773;-62
2021/01/26 01:22:54;;;;;;;6.85;5.32;;;1.70;77.20;;;;;;4994338;28;20026;-63
2021/01/26 01:25:21;;;;;;;7.45;5.35;;;1.70;77.10;;;;;;4987194;28;20239;-63
2021/01/26 01:27:47;;;;;;;8.10;5.63;;;1.70;76.90;;;;;;4996634;28;20059;-63
2021/01/26 01:30:19;;;;;;;7.70;5.65;;;1.70;76.80;;;;;;4995020;28;20030;-63
2021/01/26 01:32:45;;;;;;;7.20;5.68;;;1.60;76.70;;;;;;4985407;28;20592;-62
2021/01/26 01:35:12;;;;;;;8.63;5.75;;;1.60;76.70;;;;;;4983775;28;20048;-63
2021/01/26 01:37:37;;;;;;;9.00;6.22;;;1.60;76.70;;;;;;4998549;28;20042;-62
2021/01/26 01:40:05;;;;;;;7.95;5.80;;;1.60;76.70;;;;;;4998953;28;20480;-63
2021/01/26 01:42:30;;;;;;;7.63;5.95;;;1.60;76.80;;;;;;4995611;28;20813;-62
2021/01/26 01:44:56;;;;;;;7.82;5.57;;;1.50;76.80;;;;;;4999158;28;20031;-62
2021/01/26 01:47:32;;;;;;;9.05;6.32;;;1.50;76.70;;;;;;4983420;28;20038;-62
2021/01/26 01:50:01;;;;;;;9.40;5.90;;;1.50;76.60;;;;;;5000321;28;20057;-62
2021/01/26 01:52:33;;;;;;;8.05;5.57;;;1.50;76.40;;;;;;4995083;28;20104;-62
2021/01/26 01:55:04;;;;;;;7.30;5.63;;;1.50;76.40;;;;;;4999644;28;20042;-62
2021/01/26 01:57:40;;;;;;;7.00;5.47;;;1.40;76.30;;;;;;5000457;28;20034;-63
2021/01/26 02:00:12;;;;;;;7.43;5.68;;;1.40;76.20;;;;;;4998499;28;20040;-62
2021/01/26 02:02:40;;;;;;;9.00;6.07;;;1.30;76.00;;;;;;4981215;28;20048;-62
2021/01/26 02:05:07;;;;;;;7.55;5.82;;;1.30;76.00;;;;;;4980950;28;20030;-62
2021/01/26 02:07:33;;;;;;;9.23;5.80;;;1.30;76.00;;;;;;4998244;28;20504;-61
2021/01/26 02:09:59;;;;;;;8.25;5.45;;;1.20;75.90;;;;;;5000946;28;20156;-63
2021/01/26 02:12:25;;;;;;;7.43;5.68;;;1.20;75.90;;;;;;4997272;28;20128;-62
2021/01/26 02:14:54;;;;;;;9.05;6.25;;;1.20;75.90;;;;;;4999788;28;20057;-62
2021/01/26 02:17:26;;;;;;;9.43;6.72;;;1.10;75.90;;;;;;5001195;28;20034;-62
2021/01/26 02:20:03;;;;;;;8.73;6.00;;;1.00;75.80;;;;;;4996001;28;20037;-61
2021/01/26 02:22:53;;;;;;;9.20;5.90;;;1.00;75.90;;;;;;4997956;28;20054;-63
2021/01/26 02:25:28;;;;;;;8.85;6.22;;;0.90;76.00;;;;;;4999712;28;20084;-62
2021/01/26 02:28:12;;;;;;;;;;;0.80;76.20;;;;;;4983752;28;20031;-61
2021/01/26 02:31:05;;;;;;;8.00;5.60;;;0.80;76.50;;;;;;4998796;28;19921;-62
2021/01/26 02:33:53;;;;;;;8.50;6.03;;;0.80;76.60;;;;;;4987148;28;20031;-63
2021/01/26 02:37:12;;;;;;;9.23;6.47;;;0.70;76.60;;;;;;4999436;28;20041;-63
2021/01/26 02:39:53;;;;;;;7.60;5.85;;;0.70;76.60;;;;;;4940384;28;20034;-62
2021/01/26 02:42:54;;;;;;;8.45;6.32;;;0.70;76.40;;;;;;4997779;28;20030;-62
2021/01/26 02:45:35;;;;;;;8.32;6.13;;;0.70;76.20;;;;;;4919159;29;20114;-63
2021/01/26 02:48:33;;;;;;;10.98;6.20;;;0.70;76.20;;;;;;4978893;28;20726;-63
2021/01/26 02:51:17;;;;;;;7.82;5.80;;;0.70;75.90;;;;;;4993686;28;20038;-62
2021/01/26 02:54:05;;;;;;;8.63;6.40;;;0.70;75.90;;;;;;4962102;28;20058;-63
2021/01/26 02:56:46;;;;;;;9.10;5.97;;;0.70;75.60;;;;;;4980101;28;20499;-61
2021/01/26 02:59:27;;;;;;;8.45;5.75;;;0.70;75.70;;;;;;4961571;28;20437;-62
2021/01/26 03:02:08;;;;;;;8.90;6.18;;;0.70;76.50;;;;;;4959647;28;20026;-62
2021/01/26 03:05:15;;;;;;;8.68;6.18;;;0.60;75.30;;;;;;4958940;28;20545;-61
2021/01/26 03:08:06;;;;;;;9.23;6.28;;;0.70;75.20;;;;;;4957831;28;20102;-63
2021/01/26 03:10:40;;;;;;;8.38;5.90;;;0.70;75.20;;;;;;4986604;28;20041;-62
2021/01/26 03:13:10;;;;;;;8.27;6.03;;;0.60;75.30;;;;;;4991637;28;20076;-62
2021/01/26 03:15:42;;;;;;;7.95;5.90;;;0.60;75.30;;;;;;4989667;28;20461;-62
2021/01/26 03:18:15;;;;;;;9.35;6.28;;;0.60;75.30;;;;;;4996637;28;20034;-63
2021/01/26 03:20:52;;;;;;;10.23;6.40;;;0.60;75.50;;;;;;4994702;28;20039;-62
2021/01/26 03:23:23;;;;;;;8.80;5.65;;;0.60;75.50;;;;;;4987994;28;20042;-62
2021/01/26 03:25:53;;;;;;;8.60;5.88;;;0.60;75.60;;;;;;4999658;28;20030;-62
2021/01/26 03:28:23;;;;;;;8.13;5.70;;;0.60;75.50;;;;;;4980092;28;20053;-60
2021/01/26 03:30:52;;;;;;;8.93;5.63;;;0.60;75.50;;;;;;4980600;28;20034;-62
2021/01/26 03:33:34;;;;;;;7.75;5.53;;;0.60;75.30;;;;;;4999787;28;20042;-61
2021/01/26 03:36:00;;;;;;;8.52;5.90;;;0.60;75.30;;;;;;4999333;28;20039;-63
2021/01/26 03:38:29;;;;;;;9.18;5.57;;;0.60;75.40;;;;;;4998693;28;20034;-62
2021/01/26 03:40:56;;;;;;;7.20;4.88;;;0.70;75.50;;;;;;4996386;28;20465;-62
2021/01/26 03:43:22;;;;;;;8.07;5.07;;;0.70;75.50;;;;;;4999185;28;20034;-61
2021/01/26 03:45:58;;;;;;;8.32;5.05;;;0.70;75.30;;;;;;4997047;28;20049;-63
2021/01/26 03:48:50;;;;;;;6.72;4.70;;;0.70;75.20;;;;;;4997403;28;20042;-62
2021/01/26 03:51:44;;;;;;;6.97;4.38;;;0.70;75.00;;;;;;4978030;28;20128;-62
2021/01/26 03:54:16;;;;;;;6.70;4.65;;;0.80;75.00;;;;;;4979500;28;20038;-62
2021/01/26 03:56:45;;;;;;;6.55;4.63;;;0.80;75.10;;;;;;4978966;28;20042;-62
2021/01/26 03:59:45;;;;;;;7.43;5.05;;;0.80;75.00;;;;;;4995981;28;20030;-62
2021/01/26 04:02:44;;;;;;;8.45;5.70;;;0.80;74.80;;;;;;4978619;28;20386;-62
2021/01/26 04:05:13;;;;;;;8.27;5.00;;;0.80;74.80;;;;;;4998397;28;20930;-62
2021/01/26 04:07:44;;;;;;;8.20;5.20;;;0.80;74.80;;;;;;4997518;28;20117;-63
2021/01/26 04:10:21;;;;;;;6.30;5.03;;;0.80;74.80;;;;;;4984991;28;20124;-62
2021/01/26 04:12:50;;;;;;;7.28;5.18;;;0.80;74.80;;;;;;4979406;28;20168;-62
2021/01/26 04:15:20;;;;;;;7.00;5.05;;;0.80;74.80;;;;;;4997525;28;20034;-62
2021/01/26 04:17:51;;;;;;;7.43;5.38;;;0.80;74.80;;;;;;4998251;28;20048;-62
2021/01/26 04:20:31;;;;;;;8.27;5.57;;;0.80;74.60;;;;;;4995172;28;20438;-63
2021/01/26 04:22:58;;;;;;;8.27;5.32;;;0.80;74.60;;;;;;4991475;28;20113;-62
2021/01/26 04:25:33;;;;;;;6.97;5.10;;;0.80;74.60;;;;;;4979505;28;20034;-63
2021/01/26 04:28:00;;;;;;;6.70;5.15;;;0.80;74.60;;;;;;4976376;28;20054;-62
2021/01/26 04:30:26;;;;;;;6.82;5.18;;;0.80;74.60;;;;;;4974489;28;20042;-63
2021/01/26 04:33:06;;;;;;;7.13;4.93;;;0.80;74.60;;;;;;4978424;28;20035;-61
2021/01/26 04:35:33;;;;;;;7.32;5.20;;;0.80;74.50;;;;;;4977273;28;20050;-62
2021/01/26 04:37:59;;;;;;;7.75;5.20;;;0.80;74.60;;;;;;4975530;28;20054;-62
2021/01/26 04:40:26;;;;;;;7.55;5.47;;;0.80;74.60;;;;;;4957982;28;20038;-63
2021/01/26 04:43:24;;;;;;;7.60;5.47;;;0.80;74.60;;;;;;4977888;28;20046;-62
2021/01/26 04:45:50;;;;;;;7.35;5.15;;;0.80;74.50;;;;;;4978071;28;20035;-62
2021/01/26 04:48:25;;;;;;;7.90;5.25;;;0.80;74.50;;;;;;4959081;28;20469;-63
2021/01/26 04:50:57;;;;;;;8.27;5.63;;;0.80;74.30;;;;;;4979558;28;20417;-62
2021/01/26 04:53:35;;;;;;;7.63;5.35;;;0.80;74.30;;;;;;4968641;28;20043;-62
2021/01/26 04:56:12;;;;;;;7.43;5.40;;;0.80;74.20;;;;;;4957564;28;20041;-61
2021/01/26 04:58:56;;;;;;;8.23;5.50;;;0.80;74.30;;;;;;4990099;28;20125;-63
2021/01/26 05:01:51;;;;;;;8.63;5.38;;;0.80;74.40;;;;;;4994693;28;20062;-62
2021/01/26 05:04:29;;;;;;;7.68;5.35;;;0.80;74.50;;;;;;4993264;28;20037;-63
2021/01/26 05:07:03;;;;;;;8.45;5.55;;;0.80;74.40;;;;;;4981691;28;20033;-63
2021/01/26 05:09:39;;;;;;;7.80;5.13;;;0.70;75.20;;;;;;4998086;28;20034;-62
2021/01/26 05:12:06;;;;;;;6.82;5.28;;;0.70;74.50;;;;;;4979361;28;20488;-62
2021/01/26 05:14:44;;;;;;;9.25;5.00;;;0.70;74.30;;;;;;4994986;28;20033;-62
2021/01/26 05:17:22;;;;;;;8.23;4.88;;;0.70;74.30;;;;;;4978521;28;20038;-62
2021/01/26 05:20:21;;;;;;;12.30;6.35;;;0.70;74.30;;;;;;4994971;28;20034;-62
2021/01/26 05:23:04;;;;;;;8.05;5.40;;;0.70;74.30;;;;;;4991455;28;20051;-62
2021/01/26 05:25:30;;;;;;;8.40;5.25;;;0.70;74.30;;;;;;4976342;28;20066;-62
2021/01/26 05:27:55;;;;;;;8.50;5.43;;;0.70;74.40;;;;;;4969441;28;20202;-62
2021/01/26 05:30:32;;;;;;;7.70;5.15;;;0.70;74.30;;;;;;4964310;28;20050;-63
2021/01/26 05:33:01;;;;;;;9.32;5.28;;;0.70;74.20;;;;;;4979488;28;20033;-63
2021/01/26 05:35:27;;;;;;;8.27;4.90;;;0.70;74.30;;;;;;4993970;28;20034;-64
2021/01/26 05:37:54;;;;;;;8.88;5.85;;;0.70;74.30;;;;;;4993216;28;20159;-62
2021/01/26 05:40:27;;;;;;;10.13;6.55;;;0.70;74.50;;;;;;4992894;28;20157;-63
2021/01/26 05:42:58;;;;;;;9.52;6.65;;;0.70;74.30;;;;;;4996830;28;20494;-62
2021/01/26 05:45:27;;;;;;;8.57;6.20;;;0.70;74.30;;;;;;4997941;28;20034;-62
2021/01/26 05:48:02;;;;;;;8.82;5.32;;;0.70;74.30;;;;;;4997549;28;20026;-62
2021/01/26 05:50:30;;;;;;;10.52;5.80;;;0.80;74.20;;;;;;4995458;28;20431;-62
2021/01/26 05:53:03;;;;;;;8.68;5.10;;;0.80;74.30;;;;;;4980211;28;20019;-61
2021/01/26 05:55:31;;;;;;;7.35;5.65;;;0.80;74.20;;;;;;4998366;28;20133;-62
2021/01/26 05:58:06;;;;;;;7.35;4.88;;;0.80;74.20;;;;;;4992796;28;20030;-63
2021/01/26 06:00:32;;;;;;;6.88;4.75;;;0.80;74.00;;;;;;4997227;28;20058;-62
2021/01/26 06:03:16;;;;;;;5.70;3.70;;;0.80;74.00;;;;;;4980565;28;20038;-61
2021/01/26 06:06:03;;;;;;;7.30;4.30;;;0.80;73.60;;;;;;4980870;28;20121;-62
2021/01/26 06:08:30;;;;;;;5.78;3.92;;;0.90;73.80;;;;;;4971487;28;20523;-62
2021/01/26 06:10:57;;;;;;;6.63;4.43;;;0.90;73.80;;;;;;4977972;28;20030;-61
2021/01/26 06:13:30;;;;;;;5.32;3.70;;;0.90;73.70;;;;;;4997989;28;20038;-59
2021/01/26 06:16:08;;;;;;;6.30;4.20;;;0.90;73.50;;;;;;4998223;28;20537;-62
2021/01/26 06:18:33;;;;;;;4.20;3.65;;;1.00;73.60;;;;;;4991948;28;20037;-62
2021/01/26 06:21:17;;;;;;;6.22;4.40;;;1.00;73.70;;;;;;4996518;28;20034;-62
2021/01/26 06:23:43;;;;;;;7.13;4.55;;;1.00;73.40;;;;;;4984350;28;20041;-62
2021/01/26 06:26:10;;;;;;;8.50;4.25;;;1.00;73.60;;;;;;4996679;28;20038;-62
2021/01/26 06:29:13;;;;;;;5.55;4.30;;;1.00;73.40;;;;;;4995999;28;20041;-60
2021/01/26 06:31:51;;;;;;;6.20;4.32;;;1.00;73.30;;;;;;4982280;28;20050;-61
2021/01/26 06:34:46;;;;;;;8.07;4.60;;;1.10;73.40;;;;;;4999606;28;20030;-61
2021/01/26 06:37:30;;;;;;;6.93;4.83;;;1.10;73.40;;;;;;4985921;28;20026;-61
2021/01/26 06:40:30;;;;;;;7.78;4.85;;;1.10;73.40;;;;;;4970706;28;20038;-62
2021/01/26 06:43:24;;;;;;;7.03;4.30;;;1.00;73.30;;;;;;4995431;28;20557;-60
2021/01/26 06:45:59;;;;;;;6.70;4.38;;;1.00;73.30;;;;;;4961437;28;20039;-62
2021/01/26 06:48:24;;;;;;;;;;;1.00;73.30;;;;;;4979771;28;20069;-61
2021/01/26 06:51:31;;;;;;;6.60;3.90;;;1.00;72.90;;;;;;4980702;28;20004;-61
2021/01/26 06:54:29;;;;;;;5.20;3.70;;;1.00;72.80;;;;;;4980028;28;20117;-62
2021/01/26 06:57:41;;;;;;;6.88;3.85;;;1.00;72.90;;;;;;4977558;28;20046;-61
2021/01/26 07:00:20;;;;;;;4.55;3.47;;;1.00;72.80;;;;;;4929882;28;20043;-61
2021/01/26 07:03:13;;;;;;;5.13;3.70;;;1.00;73.10;;;;;;4998490;28;20022;-63
2021/01/26 07:05:38;;;;;;;5.40;3.42;;;1.00;73.00;;;;;;4998650;28;20055;-62
2021/01/26 07:08:41;;;;;;;5.38;3.58;;;1.00;73.10;;;;;;4992471;28;20529;-62
2021/01/26 07:11:15;;;;;;;4.70;3.78;;;1.00;72.70;;;;;;4989869;28;20045;-62
2021/01/26 07:13:53;;;;;;;6.15;2.97;;;1.00;72.90;;;;;;4977926;28;20063;-63
2021/01/26 07:16:48;;;;;;;6.40;3.58;;;1.10;72.70;;;;;;4979123;28;20177;-62
2021/01/26 07:19:28;;;;;;;6.25;3.17;;;1.10;72.90;;;;;;4976384;28;20104;-62
2021/01/26 07:22:16;;;;;;;5.22;3.55;;;1.10;72.80;;;;;;4968704;28;20066;-61
2021/01/26 07:24:59;;;;;;;5.28;3.55;;;1.10;72.90;;;;;;4963263;28;20037;-62
2021/01/26 07:27:52;;;;;;;4.43;3.05;;;1.10;73.00;;;;;;4989284;28;20031;-62
2021/01/26 07:30:20;;;;;;;5.75;3.30;;;1.10;72.70;;;;;;4979366;28;20026;-64
2021/01/26 07:32:45;;;;;;;4.10;3.03;;;1.10;72.90;;;;;;4963897;28;20419;-62
2021/01/26 07:35:51;;;;;;;4.97;3.25;;;1.10;72.70;;;;;;4990902;28;20042;-60
2021/01/26 07:38:40;;;;;;;7.07;3.15;;;1.10;72.40;;;;;;4886464;29;20041;-62
2021/01/26 07:41:11;;;;;;;5.43;3.17;;;1.10;72.60;;;;;;4967063;28;20085;-62
2021/01/26 07:43:58;;;;;;;4.80;3.15;;;1.10;72.50;;;;;;4988378;28;20030;-62
2021/01/26 07:46:31;;;;;;;3.88;2.97;;;1.20;72.60;;;;;;4976295;28;20464;-61
2021/01/26 07:49:21;;;;;;;3.58;2.67;;;1.20;72.60;;;;;;4977214;28;20506;-62
2021/01/26 07:51:53;;;;;;;4.07;3.08;;;1.20;72.30;;;;;;4978237;28;20039;-62
2021/01/26 07:54:48;;;;;;;5.22;2.60;;;1.20;72.40;;;;;;4976005;28;20414;-60
2021/01/26 07:57:16;;;;;;;5.38;3.40;;;1.20;72.00;;;;;;4973850;28;20035;-61
2021/01/26 07:59:51;;;;;;;4.50;3.65;;;1.20;72.10;;;;;;4977271;28;20039;-62
2021/01/26 08:02:24;;;;;;;3.78;3.20;;;1.20;71.90;;;;;;4968945;28;20031;-62
2021/01/26 08:04:49;;;;;;;5.25;3.42;;;1.20;72.00;;;;;;4994500;28;20086;-61
2021/01/26 08:07:27;;;;;;;6.85;3.20;;;1.20;72.30;;;;;;4993383;28;20030;-62
2021/01/26 08:09:54;;;;;;;6.78;3.38;;;1.20;72.70;;;;;;4995354;28;20037;-62
2021/01/26 08:12:28;;;;;;;5.00;3.65;;;1.20;72.00;;;;;;4977256;28;20532;-61
2021/01/26 08:14:56;;;;;;;;;;;1.20;71.70;;;;;;4979886;28;20038;-63
2021/01/26 08:17:31;;;;;;;5.72;3.70;;;1.20;71.70;;;;;;4998717;28;19992;-61
2021/01/26 08:20:07;;;;;;;5.63;3.70;;;1.20;71.90;;;;;;4997255;28;20027;-61
2021/01/26 08:22:39;;;;;;;7.78;4.47;;;1.20;72.00;;;;;;4997376;28;20093;-62
2021/01/26 08:25:05;;;;;;;6.43;4.60;;;1.20;72.20;;;;;;4997170;28;20030;-62
2021/01/26 08:27:39;;;;;;;6.18;4.40;;;1.20;72.30;;;;;;4998202;28;20140;-62
2021/01/26 08:30:10;;;;;;;8.68;4.57;;;1.20;72.20;;;;;;4997597;28;20027;-59
2021/01/26 08:32:36;;;;;;;6.75;4.65;;;1.20;72.30;;;;;;4994282;28;20033;-62
2021/01/26 08:35:07;;;;;;;7.80;4.75;;;1.20;72.30;;;;;;4996909;28;20399;-63
2021/01/26 08:37:42;;;;;;;9.82;5.65;;;1.20;72.30;;;;;;4997696;28;20066;-61
2021/01/26 08:40:08;;;;;;;9.00;5.63;;;1.20;72.30;;;;;;4979704;28;20459;-61
2021/01/26 08:42:44;;;;;;;8.70;4.97;;;1.30;72.40;;;;;;4981801;28;20038;-61
2021/01/26 08:45:24;;;;;;;8.93;5.28;;;1.30;72.40;;;;;;4997243;28;20084;-61
2021/01/26 08:47:52;;;;;;;11.07;6.00;;;1.30;72.10;;;;;;4977500;28;20042;-62
2021/01/26 08:50:32;;;;;;;10.82;6.40;;;1.30;72.50;;;;;;4996219;28;20469;-61
2021/01/26 08:53:35;;;;;;;9.25;5.55;;;1.30;72.40;;;;;;4993361;28;20150;-62
2021/01/26 08:56:22;;;;;;;9.80;5.68;;;1.30;72.20;;;;;;4899387;29;20070;-62
2021/01/26 08:58:49;;;;;;;10.52;6.07;;;1.30;72.40;;;;;;4962009;28;20050;-61
2021/01/26 09:01:23;;;;;;;12.40;6.22;;;1.30;72.40;;;;;;4989165;28;20498;-62
2021/01/26 09:03:53;;;;;;;9.00;5.55;;;1.40;72.40;;;;;;4977319;28;20034;-62
2021/01/26 09:06:38;;;;;;;13.73;7.32;;;1.40;72.70;;;;;;4979295;28;20102;-61
2021/01/26 09:09:04;;;;;;;10.17;5.80;;;1.40;72.60;;;;;;4979959;28;20143;-62
2021/01/26 09:11:59;;;;;;;12.38;6.43;;;1.40;72.80;;;;;;4994128;28;20219;-62
2021/01/26 09:14:37;;;;;;;10.25;5.32;;;1.40;72.70;;;;;;4994151;28;20042;-60
2021/01/26 09:17:11;;;;;;;9.10;5.25;;;1.50;72.90;;;;;;4996336;28;20117;-62
2021/01/26 09:19:44;;;;;;;11.50;5.07;;;1.50;72.80;;;;;;4997614;28;20049;-58
2021/01/26 09:22:21;;;;;;;10.07;5.35;;;1.50;72.90;;;;;;4997767;28;20108;-61
2021/01/26 09:24:48;;;;;;;10.88;5.78;;;1.50;72.80;;;;;;4994298;28;20489;-61
2021/01/26 09:27:25;;;;;;;8.80;5.80;;;1.60;73.40;;;;;;4980108;28;20433;-62
2021/01/26 09:30:14;;;;;;;10.15;5.85;;;1.60;72.90;;;;;;4979114;28;20088;-61
2021/01/26 09:32:43;;;;;;;9.38;5.50;;;1.60;72.90;;;;;;4997227;28;20042;-59
2021/01/26 09:35:21;;;;;;;10.90;5.68;;;1.60;72.90;;;;;;4996033;28;20081;-62
2021/01/26 09:37:57;;;;;;;8.82;5.22;;;1.60;73.00;;;;;;4994591;28;20062;-62
2021/01/26 09:40:23;;;;;;;12.18;6.18;;;1.60;73.10;;;;;;4994858;28;20509;-62
2021/01/26 09:42:49;;;;;;;11.43;6.25;;;1.60;73.20;;;;;;4995408;28;20058;-62
2021/01/26 09:45:18;;;;;;;12.20;6.35;;;1.70;73.30;;;;;;4997394;28;20030;-62
2021/01/26 09:47:48;;;;;;;11.52;6.00;;;1.70;73.30;;;;;;4995821;28;20041;-60
2021/01/26 09:50:15;;;;;;;8.88;5.35;;;1.70;73.40;;;;;;4995998;28;20033;-62
2021/01/26 09:52:42;;;;;;;13.52;5.90;;;1.70;73.50;;;;;;4992474;28;20049;-62
2021/01/26 09:55:13;;;;;;;11.48;5.95;;;1.70;73.60;;;;;;4999629;28;20452;-60
2021/01/26 09:57:41;;;;;;;11.25;6.13;;;1.70;73.70;;;;;;4996271;28;20054;-62
2021/01/26 10:00:12;;;;;;;13.43;6.85;;;1.70;73.80;;;;;;5000304;28;20034;-62
2021/01/26 10:02:40;;;;;;;10.68;6.18;;;1.80;74.00;;;;;;5000717;28;20417;-62
2021/01/26 10:05:10;;;;;;;11.10;6.30;;;1.80;74.10;;;;;;5000959;28;20374;-62
2021/01/26 10:07:36;;;;;;;10.68;6.60;;;1.80;74.00;;;;;;4990131;28;20030;-62
2021/01/26 10:10:12;;;;;;;10.48;6.13;;;1.90;74.10;;;;;;4983238;28;20509;-60
2021/01/26 10:12:40;;;;;;;12.40;6.57;;;1.90;74.00;;;;;;4997532;28;20797;-62
2021/01/26 10:15:24;;;;;;;10.20;6.75;;;1.90;74.10;;;;;;4999531;28;20092;-61
2021/01/26 10:18:12;;;;;;;11.20;6.53;;;1.90;74.10;;;;;;5000529;28;20026;-63
2021/01/26 10:20:53;;;;;;;11.57;6.82;;;1.90;74.10;;;;;;4999221;28;20529;-62
2021/01/26 10:23:41;;;;;;;11.10;6.50;;;1.90;74.00;;;;;;4999864;28;20034;-62
2021/01/26 10:26:21;;;;;;;9.35;6.43;;;1.90;74.00;;;;;;4999036;28;20286;-61
2021/01/26 10:29:29;;;;;;;11.57;6.80;;;2.00;74.20;;;;;;4999263;28;20030;-62
2021/01/26 10:31:59;;;;;;;11.68;7.20;;;2.00;74.30;;;;;;4945280;29;20046;-62
2021/01/26 10:34:48;;;;;;;13.82;7.50;;;2.00;74.30;;;;;;4990542;28;20045;-61
2021/01/26 10:37:31;;;;;;;13.88;7.35;;;2.00;74.60;;;;;;4999674;28;20038;-62
2021/01/26 10:40:21;;;;;;;16.90;7.05;;;2.00;74.50;;;;;;4982102;28;20030;-60
2021/01/26 10:43:00;;;;;;;12.05;6.90;;;2.00;74.60;;;;;;4994436;28;20066;-60
2021/01/26 10:45:37;;;;;;;12.15;7.10;;;2.00;74.60;;;;;;4982629;28;20770;-61
2021/01/26 10:48:16;;;;;;;11.13;6.93;;;2.00;74.60;;;;;;4980425;28;20118;-62
2021/01/26 10:50:42;;;;;;;12.55;7.10;;;2.10;74.80;;;;;;4997407;28;20515;-62
2021/01/26 10:53:09;;;;;;;14.07;7.00;;;2.10;74.70;;;;;;4997809;28;20102;-62
2021/01/26 10:55:34;;;;;;;9.93;5.97;;;2.10;74.80;;;;;;4999289;28;20046;-62
2021/01/26 10:58:00;;;;;;;10.55;6.13;;;2.10;74.70;;;;;;4998272;28;20042;-62
2021/01/26 11:00:26;;;;;;;14.77;7.00;;;2.10;74.60;;;;;;4996723;28;20053;-61
2021/01/26 11:02:53;;;;;;;11.73;6.40;;;2.20;74.70;;;;;;4996182;28;20153;-61
2021/01/26 11:05:19;;;;;;;11.60;6.05;;;2.20;74.60;;;;;;4999902;28;20030;-60
2021/01/26 11:07:45;;;;;;;10.48;5.88;;;2.20;74.60;;;;;;4997861;28;20117;-62
2021/01/26 11:10:12;;;;;;;11.95;5.90;;;2.20;74.60;;;;;;4982220;28;20114;-62
2021/01/26 11:12:40;;;;;;;10.10;5.15;;;2.20;74.50;;;;;;4997023;28;20041;-62
2021/01/26 11:15:12;;;;;;;10.38;6.07;;;2.20;74.50;;;;;;4998327;28;20049;-62
2021/01/26 11:17:37;;;;;;;8.45;5.70;;;2.30;74.50;;;;;;4998918;28;20033;-62
2021/01/26 11:20:05;;;;;;;10.77;6.10;;;2.30;74.50;;;;;;4999447;28;20453;-62
2021/01/26 11:22:31;;;;;;;10.23;5.55;;;2.30;74.50;;;;;;4998224;28;20041;-61
2021/01/26 11:24:56;;;;;;;10.98;5.70;;;2.30;74.60;;;;;;4999724;28;20040;-60
2021/01/26 11:27:22;;;;;;;8.65;5.72;;;2.30;74.40;;;;;;4988189;28;20089;-62
2021/01/26 11:29:49;;;;;;;7.80;5.38;;;2.40;74.50;;;;;;4999316;28;20034;-61
2021/01/26 11:32:15;;;;;;;9.93;5.60;;;2.40;74.30;;;;;;4996398;28;20511;-62
2021/01/26 11:34:40;;;;;;;9.68;5.50;;;2.40;74.20;;;;;;4980342;28;20050;-62
2021/01/26 11:37:06;;;;;;;9.18;5.30;;;2.40;74.10;;;;;;4998438;28;20034;-60
2021/01/26 11:39:31;;;;;;;7.90;5.07;;;2.40;74.10;;;;;;4979976;28;20058;-62
2021/01/26 11:41:57;;;;;;;7.43;5.38;;;2.50;74.10;;;;;;4997786;28;20030;-62
2021/01/26 11:44:23;;;;;;;8.50;5.43;;;2.50;74.10;;;;;;4980329;28;20066;-62
2021/01/26 11:46:48;;;;;;;9.23;5.30;;;2.50;74.10;;;;;;4996623;28;20026;-60
2021/01/26 11:49:14;;;;;;;11.30;5.80;;;2.60;74.90;;;;;;4998224;28;20022;-63
2021/01/26 11:51:39;;;;;;;9.52;4.80;;;2.60;74.00;;;;;;4998428;28;20078;-62
2021/01/26 11:54:05;;;;;;;7.82;4.60;;;2.60;74.00;;;;;;4997955;28;20490;-62
2021/01/26 11:56:31;;;;;;;9.60;5.00;;;2.70;74.10;;;;;;4997520;28;20506;-60
2021/01/26 11:58:56;;;;;;;9.82;4.95;;;2.70;74.10;;;;;;4997936;28;20464;-62
2021/01/26 12:01:22;;;;;;;10.80;4.93;;;2.80;74.10;;;;;;4997944;28;20022;-62
2021/01/26 12:03:47;;;;;;;8.25;4.53;;;2.80;73.90;;;;;;4995727;28;20035;-63
2021/01/26 12:06:13;;;;;;;6.82;4.53;;;2.90;74.00;;;;;;4997455;28;20026;-63
2021/01/26 12:08:39;;;;;;;8.50;4.90;;;3.00;73.80;;;;;;4978075;28;20035;-63
2021/01/26 12:11:06;;;;;;;10.30;6.43;;;3.10;74.00;;;;;;4997253;28;20042;-62
2021/01/26 12:13:32;;;;;;;8.55;5.50;;;3.10;73.60;;;;;;4997944;28;20046;-63
2021/01/26 12:15:58;;;;;;;8.52;4.50;;;3.20;73.60;;;;;;4998305;28;20026;-64
2021/01/26 12:18:23;;;;;;;8.32;4.65;;;3.30;73.10;;;;;;4995542;28;20041;-64
2021/01/26 12:20:49;;;;;;;8.13;4.80;;;3.40;72.60;;;;;;4996865;28;20038;-63
2021/01/26 12:23:15;;;;;;;6.60;4.45;;;3.40;72.70;;;;;;4986169;28;20054;-62
2021/01/26 12:25:41;;;;;;;7.18;4.63;;;3.50;72.50;;;;;;4998439;28;20033;-63
2021/01/26 12:28:08;;;;;;;12.23;4.55;;;3.50;72.20;;;;;;4978922;28;20053;-63
2021/01/26 12:30:34;;;;;;;7.78;4.60;;;3.60;72.10;;;;;;4993542;28;20030;-64
2021/01/26 12:33:00;;;;;;;8.45;4.47;;;3.60;72.00;;;;;;4997279;28;20034;-63
2021/01/26 12:35:32;;;;;;;6.60;4.45;;;3.60;71.90;;;;;;4999064;28;20120;-63
2021/01/26 12:37:58;;;;;;;5.97;4.43;;;3.60;71.90;;;;;;4998013;28;20072;-63
2021/01/26 12:40:24;;;;;;;9.05;4.80;;;3.60;72.00;;;;;;4993340;28;20301;-62
2021/01/26 12:42:50;;;;;;;8.70;5.30;;;3.60;71.80;;;;;;4978438;28;20121;-63
2021/01/26 12:45:18;;;;;;;6.90;4.55;;;3.60;71.10;;;;;;4982098;28;20037;-65
2021/01/26 12:47:44;;;;;;;5.72;4.10;;;3.60;71.30;;;;;;4979636;28;20062;-63
2021/01/26 12:50:12;;;;;;;8.13;5.07;;;3.60;71.50;;;;;;4996472;28;20116;-64
2021/01/26 12:52:37;;;;;;;6.32;4.78;;;3.60;71.40;;;;;;4994713;28;20133;-63
2021/01/26 12:55:04;;;;;;;7.55;4.35;;;3.60;71.50;;;;;;4977395;28;20176;-64
2021/01/26 12:57:29;;;;;;;7.35;4.70;;;3.60;71.50;;;;;;4978605;28;20073;-62
2021/01/26 12:59:55;;;;;;;6.43;4.57;;;3.50;71.50;;;;;;4984716;28;20035;-64
2021/01/26 13:02:22;;;;;;;7.28;4.30;;;3.50;71.50;;;;;;4980405;28;20061;-63
2021/01/26 13:04:48;;;;;;;7.22;4.55;;;3.50;71.30;;;;;;4997323;28;20030;-63
2021/01/26 13:07:14;;;;;;;6.70;4.53;;;3.50;71.30;;;;;;4979445;28;20042;-63
2021/01/26 13:09:39;;;;;;;6.53;4.30;;;3.50;71.40;;;;;;4976893;28;20042;-64
2021/01/26 13:12:05;;;;;;;6.18;4.38;;;3.50;71.30;;;;;;4977373;28;20042;-64
2021/01/26 13:14:31;;;;;;;8.88;4.40;;;3.50;71.50;;;;;;4996598;28;20277;-64
2021/01/26 13:16:57;;;;;;;6.88;4.50;;;3.50;71.60;;;;;;4995020;28;20433;-64
2021/01/26 13:19:23;;;;;;;7.07;5.07;;;3.50;71.40;;;;;;4995380;28;20035;-63
2021/01/26 13:21:51;;;;;;;8.10;4.50;;;3.50;71.30;;;;;;4979705;28;20043;-63
2021/01/26 13:24:17;;;;;;;7.47;4.53;;;3.50;71.30;;;;;;4996972;28;20058;-63
2021/01/26 13:26:43;;;;;;;7.72;4.85;;;3.50;71.40;;;;;;4996542;28;20046;-63